Terminal Aerodrome Forecast
Issued by NWS

Home | Current Version | Previous Version | Text Only | Print | Product List | Glossary On
Versions: 1 2 3 4 5 6 7 8 9 10 11 12 13 14 15 16 17 18 19
000
FTUS44 KBMX 301736
TAFANB
TAF
KANB 301736Z 3018/3118 06006KT P6SM -SHRA BKN020
     FM302300 VRB03KT P6SM VCSH BKN050
     FM310600 VRB03KT P6SM BKN009
      TEMPO 3108/3112 2SM BR BKN005=

USA.gov is the U.S. government's official web portal to all federal, state and local government web resources and services.